Terminal Aerodrome Forecast
Issued by NWS Charleston, WV

Current Version | Previous Version | Graphics & Text | Print | Product List | Glossary On
Versions: 1 2 3 4 5 6 7 8 9 10 11 12 13 14 15 16 17 18 19 20 21 22 23 24 25 26 27
000
FTUS41 KRLX 222337
TAFBKW
TAF
KBKW 222337Z 2300/2324 13012G18KT P6SM OVC010
     FM230100 12013G23KT P6SM OVC008
      TEMPO 2303/2305 5SM -RA
     FM230800 11015G28KT 5SM -RA OVC008
     FM231000 10016G26KT 2SM -RA OVC005
     FM231400 06010G16KT 1/4SM -RA FG OVC003
     FM231900 05007KT 2SM -RA OVC008=

USA.gov is the U.S. government's official web portal to all federal, state and local government web resources and services.